MSLPTXKF

Guest
Details From MSLP - El Salvador Intl
To TXKF - Bermuda Intl
Flight Number -
Tags Generated
Created
Modified
Stats Distance 1,754 nm / 3,249 km
Max Altitude 0 ft / 0 m
Waypoints 4
Social Downloads 3
Likes 0
Share VATSIM

Download

Looking for another format? Having issues loading an existing format? Contact us
Advertisement - Login to hide

Notes

Generated

Route

MSLP CTL BDA01 TXKF

ID Type Via Altitude Latitude Longitude Leg Dist Tot Dist Heading (true) Name
O MSLP APT - 0 ft / 0 m 13.45400˚ -89.04775˚ - 0 nm - El Salvador Intl
CTL NDB - 0 ft / 0 m 16.00722˚ -85.97389˚ 235 nm 235 nm 49° / 50° PUNTA CASTILLA NDB
BDA01 FIX - 0 ft / 0 m 32.36897˚ -64.70851˚ 1518 nm 1753 nm 46° / 55° -
O TXKF APT - 0 ft / 0 m 32.36669˚ -64.69410˚ 0 nm 1754 nm 101° / 101° -

Altitude Profile

Advertisement - Login to hide

Weather


0- 5 10 15 20 25 30 35+ Temperature / ° C

Clouds and Precipitation
Forecast for 2018-05-24 00:00 UTC. Updated 6 hours ago

Ground ~20,000 ft ~40,000 ft Winds

MSLP

Details ICAO MSLP (SAL)
Name El Salvador Intl
Region El Salvador
Timezone America/El_Salvador (UTC-6.0)
Stats Elevation 101 ft / 31 m (AMSL)
Location 13.445666° -89.051739°
Runways 2
Magnetic Variation 0.390° E

METAR

MSLP 240350Z 08003KT 9999 FEW024 SCT057 27/25 Q1012 A2991 NOSIG

Decode

TAF

Not found

Departure Runways

ID Width Length Bearing (true) Bearing (mag) Surface Threshold Offset Overrun Length
07 148 ft / 45 m 10,507 ft / 3,202 m 69.86° 69.47° Asphalt 0 ft / 0 m 200 ft / 61 m
18 75 ft / 23 m 2,639 ft / 804 m 180.00° 179.61° Asphalt 0 ft / 0 m 120 ft / 37 m
25 148 ft / 45 m 10,507 ft / 3,202 m 249.87° 249.48° Asphalt 0 ft / 0 m 200 ft / 61 m
36 75 ft / 23 m 2,639 ft / 804 m 0.00° 359.61° Asphalt 0 ft / 0 m 120 ft / 37 m

TXKF

Details ICAO TXKF (BDA)
Name Bermuda Intl
Region Bermuda
Timezone Unknown (UTC+0.0)
Stats Elevation 12 ft / 4 m (AMSL)
Location 32.364038° -64.678684°
Runways 1
Magnetic Variation 14.767° W

METAR

TXKF 240355Z 22012KT 9999 FEW022 BKN080 BKN230 BKN300 24/20 Q1021

Decode

TAF

TAF TXKF 232330Z 2400/2424 23015KT 9999 VCSH FEW025 SCT120 BKN300 PROB40 TEMPO 2409/2418 6000 -SHRA SCT012 BKN018 PROB30 TEMPO 2412/2418 24015G25KT 3200 SHRA VCTS SCT007 BKN012CB BECMG 2422/2424 28012KT -SHRA FEW010 BKN015

Decode

Destination Runways

ID Width Length Bearing (true) Bearing (mag) Surface Threshold Offset Overrun Length
12 150 ft / 46 m 9,701 ft / 2,957 m 101.50° 116.27° Asphalt 0 ft / 0 m 553 ft / 169 m
30 150 ft / 46 m 9,701 ft / 2,957 m 281.52° 296.29° Asphalt 0 ft / 0 m 207 ft / 63 m

Approach Navaids

Runway Type Ident Frequency Range Bearing (true) Bearing (mag) Slope Elevation
30 Localiser IBDA 109.90 MHz 18 nm / 33 km 281.50° 296.27° - 11 ft / 3 m (AMSL)
30 Glidescope IBDA 109.90 MHz 10 nm / 19 km 281.51° 296.28° 3.00° 11 ft / 3 m (AMSL)

Popular Alternatives